createdAt,value
2023-02-11T00:01:09.146Z,134.25
2023-02-11T00:03:36.654Z,157.50
2023-02-11T00:06:06.686Z,188.25
2023-02-11T00:08:33.481Z,142.00
2023-02-11T00:11:00.310Z,180.75
2023-02-11T00:13:27.424Z,188.25
2023-02-11T00:15:55.452Z,171.75
2023-02-11T00:18:22.879Z,199.25
2023-02-11T00:20:49.774Z,191.25
2023-02-11T00:23:16.537Z,167.75
2023-02-11T00:25:45.433Z,185.50
2023-02-11T00:28:12.561Z,180.25
2023-02-11T00:30:40.951Z,173.75
2023-02-11T00:33:08.546Z,147.50
2023-02-11T00:35:38.354Z,148.00
2023-02-11T00:38:07.673Z,109.50
2023-02-11T00:40:34.520Z,117.75
2023-02-11T00:43:01.432Z,134.25
2023-02-11T00:45:28.831Z,125.00
2023-02-11T00:47:55.695Z,138.00
2023-02-11T00:50:23.004Z,119.25
2023-02-11T00:52:49.810Z,115.25
2023-02-11T00:55:17.176Z,120.00
2023-02-11T00:57:44.066Z,140.75
2023-02-11T01:00:13.830Z,142.25
2023-02-11T01:02:41.812Z,149.75
2023-02-11T01:05:10.025Z,118.00
2023-02-11T01:07:36.845Z,111.25
2023-02-11T01:10:04.472Z,101.50
2023-02-11T01:12:31.349Z,93.50
2023-02-11T01:14:58.337Z,105.25
2023-02-11T01:17:25.069Z,99.25
2023-02-11T01:19:51.842Z,109.50
2023-02-11T01:22:18.713Z,114.00
2023-02-11T01:24:47.315Z,118.25
2023-02-11T01:27:14.068Z,108.00
2023-02-11T01:29:40.863Z,137.25
2023-02-11T01:32:07.663Z,141.75
2023-02-11T01:34:34.495Z,107.00
2023-02-11T01:37:01.268Z,121.25
2023-02-11T01:39:29.295Z,123.00
2023-02-11T01:41:56.071Z,133.50
2023-02-11T01:44:29.110Z,135.25
2023-02-11T01:46:56.513Z,125.00
2023-02-11T01:49:32.224Z,113.25
2023-02-11T01:52:01.810Z,121.00
2023-02-11T01:55:01.584Z,126.25
2023-02-11T01:57:32.402Z,108.75
2023-02-11T02:00:20.430Z,113.25
2023-02-11T02:03:05.253Z,97.25
2023-02-11T02:05:43.793Z,101.00
2023-02-11T02:08:26.024Z,103.75
2023-02-11T02:10:56.591Z,100.25
2023-02-11T02:13:24.728Z,107.50
2023-02-11T02:15:59.305Z,125.25
2023-02-11T02:19:06.233Z,125.75
2023-02-11T02:22:15.233Z,108.75
2023-02-11T02:25:13.036Z,102.75
2023-02-11T02:28:05.870Z,93.50
2023-02-11T02:30:44.362Z,88.00
2023-02-11T02:33:53.320Z,88.25
2023-02-11T02:36:32.085Z,93.00
2023-02-11T02:39:13.898Z,101.25
2023-02-11T02:41:42.038Z,113.50
2023-02-11T02:44:09.421Z,98.00
2023-02-11T02:46:37.111Z,101.00
2023-02-11T02:49:11.092Z,105.75
2023-02-11T02:51:49.775Z,103.50
2023-02-11T02:54:34.456Z,109.00
2023-02-11T02:57:06.843Z,114.75
2023-02-11T03:00:19.534Z,114.00
2023-02-11T03:03:12.457Z,107.50
2023-02-11T03:06:00.465Z,101.50
2023-02-11T03:08:43.615Z,112.00
2023-02-11T03:11:12.444Z,100.00
2023-02-11T03:13:40.921Z,102.50
2023-02-11T03:16:28.502Z,105.50
2023-02-11T03:19:18.700Z,114.50
2023-02-11T03:21:47.158Z,113.50
2023-02-11T03:24:24.431Z,112.00
2023-02-11T03:26:54.915Z,122.00
2023-02-11T03:29:24.209Z,111.25
2023-02-11T03:32:17.153Z,118.50
2023-02-11T03:34:58.832Z,124.25
2023-02-11T03:37:32.693Z,122.25
2023-02-11T03:40:10.217Z,126.50
2023-02-11T03:42:59.432Z,122.75
2023-02-11T03:45:28.390Z,113.00
2023-02-11T03:48:04.039Z,115.00
2023-02-11T03:50:34.095Z,112.00
2023-02-11T03:53:02.741Z,107.75
2023-02-11T03:55:33.301Z,88.00
2023-02-11T03:58:00.154Z,81.25
2023-02-11T04:00:36.613Z,85.00
2023-02-11T04:03:04.554Z,88.75
2023-02-11T04:05:31.912Z,79.50
2023-02-11T04:07:58.751Z,91.00
2023-02-11T04:10:25.860Z,87.75
2023-02-11T04:12:52.651Z,101.00
2023-02-11T04:15:19.839Z,98.00
2023-02-11T04:17:46.767Z,127.25
2023-02-11T04:20:13.591Z,118.00
2023-02-11T04:22:40.505Z,121.50
2023-02-11T04:25:09.430Z,114.25
2023-02-11T04:27:36.837Z,105.25
2023-02-11T04:30:05.686Z,92.00
2023-02-11T04:32:32.486Z,98.50
2023-02-11T04:34:59.240Z,88.25
2023-02-11T04:37:26.015Z,102.00
2023-02-11T04:39:52.764Z,85.50
2023-02-11T04:42:19.551Z,96.50
2023-02-11T04:44:46.272Z,97.00
2023-02-11T04:47:15.616Z,78.50
2023-02-11T04:49:42.985Z,88.75
2023-02-11T04:52:09.812Z,93.00
2023-02-11T04:54:36.711Z,103.00
2023-02-11T04:57:03.610Z,108.00
2023-02-11T04:59:30.605Z,137.00
2023-02-11T05:01:57.424Z,121.25
2023-02-11T05:04:24.481Z,109.00
2023-02-11T05:06:51.292Z,109.50
2023-02-11T05:09:18.304Z,112.50
2023-02-11T05:11:45.112Z,102.25
2023-02-11T05:14:12.031Z,115.00
2023-02-11T05:16:38.905Z,111.25
2023-02-11T05:19:05.841Z,115.00
2023-02-11T05:21:32.665Z,115.00
2023-02-11T05:23:59.491Z,119.50
2023-02-11T05:26:26.905Z,108.75
2023-02-11T05:28:54.247Z,117.75
2023-02-11T05:31:21.557Z,120.25
2023-02-11T05:33:48.337Z,145.00
2023-02-11T05:36:16.914Z,113.50
2023-02-11T05:38:43.876Z,116.00
2023-02-11T05:41:11.911Z,115.75
2023-02-11T05:43:38.907Z,149.50
2023-02-11T05:46:06.810Z,135.75
2023-02-11T05:48:36.654Z,159.50
2023-02-11T05:51:04.340Z,139.50
2023-02-11T05:53:31.668Z,120.00
2023-02-11T05:55:58.513Z,144.75
2023-02-11T05:58:25.982Z,103.25
2023-02-11T06:00:52.858Z,108.50
2023-02-11T06:03:20.967Z,122.00
2023-02-11T06:05:47.994Z,113.50
2023-02-11T06:08:15.525Z,110.25
2023-02-11T06:10:45.573Z,120.00
2023-02-11T06:13:12.944Z,143.25
2023-02-11T06:15:40.297Z,157.50
2023-02-11T06:18:08.658Z,113.00
2023-02-11T06:20:35.760Z,146.50
2023-02-11T06:23:03.372Z,115.25
2023-02-11T06:25:30.130Z,153.00
2023-02-11T06:27:57.656Z,155.50
2023-02-11T06:30:25.199Z,159.50
2023-02-11T06:32:52.846Z,156.25
2023-02-11T06:35:21.418Z,142.25
2023-02-11T06:37:50.370Z,140.25
2023-02-11T06:40:17.246Z,137.25
2023-02-11T06:42:45.210Z,142.25
2023-02-11T06:45:13.830Z,179.75
2023-02-11T06:47:41.025Z,206.25
2023-02-11T06:50:11.262Z,137.00
2023-02-11T06:52:39.181Z,160.50
2023-02-11T06:55:06.508Z,153.75
2023-02-11T06:57:34.055Z,120.50
2023-02-11T07:00:01.642Z,124.00
2023-02-11T07:02:28.829Z,131.25
2023-02-11T07:04:55.607Z,139.75
2023-02-11T07:07:22.399Z,164.25
2023-02-11T07:09:49.191Z,180.50
2023-02-11T07:12:15.922Z,114.50
2023-02-11T07:14:42.783Z,109.50
2023-02-11T07:17:09.539Z,113.25
2023-02-11T07:19:36.280Z,167.25
2023-02-11T07:22:03.031Z,144.25
2023-02-11T07:24:29.906Z,137.25
2023-02-11T07:26:56.630Z,152.50
2023-02-11T07:29:23.338Z,124.00
2023-02-11T07:31:50.444Z,171.00
2023-02-11T07:34:17.427Z,159.75
2023-02-11T07:36:45.106Z,172.00
2023-02-11T07:39:12.080Z,155.50
2023-02-11T07:41:39.094Z,160.75
2023-02-11T07:44:06.451Z,168.75
2023-02-11T07:46:34.691Z,152.75
2023-02-11T07:49:01.695Z,152.75
2023-02-11T07:51:30.010Z,156.25
2023-02-11T07:53:59.131Z,170.75
2023-02-11T07:56:26.702Z,180.50
2023-02-11T07:58:54.470Z,241.00
2023-02-11T08:01:25.429Z,165.75
2023-02-11T08:03:53.021Z,145.25
2023-02-11T08:06:22.328Z,165.50
2023-02-11T08:08:49.532Z,222.75
2023-02-11T08:11:21.988Z,204.75
2023-02-11T08:13:49.092Z,161.00
2023-02-11T08:16:36.297Z,176.25
2023-02-11T08:19:14.668Z,207.75
2023-02-11T08:21:42.096Z,182.25
2023-02-11T08:24:09.534Z,196.50
2023-02-11T08:26:37.492Z,206.00
2023-02-11T08:29:09.163Z,209.75
2023-02-11T08:31:39.604Z,201.75
2023-02-11T08:34:06.997Z,184.50
2023-02-11T08:36:36.717Z,196.00
2023-02-11T08:39:22.482Z,198.00
2023-02-11T08:41:54.511Z,210.50
2023-02-11T08:44:21.918Z,222.50
2023-02-11T08:46:49.723Z,207.75
2023-02-11T08:49:17.252Z,195.75
2023-02-11T08:51:44.870Z,195.00
2023-02-11T08:54:12.165Z,212.25
2023-02-11T08:56:39.202Z,189.75
2023-02-11T08:59:07.107Z,174.00
2023-02-11T09:01:34.038Z,186.00
2023-02-11T09:04:01.232Z,222.00
2023-02-11T09:06:29.124Z,221.50
2023-02-11T09:08:58.142Z,197.50
2023-02-11T09:11:34.942Z,150.75
2023-02-11T09:14:03.051Z,205.50
2023-02-11T09:16:32.504Z,231.75
2023-02-11T09:19:01.163Z,185.25
2023-02-11T09:21:29.006Z,148.00
2023-02-11T09:23:56.641Z,172.75
2023-02-11T09:26:28.659Z,152.50
2023-02-11T09:28:56.125Z,157.75
2023-02-11T09:31:25.456Z,129.00
2023-02-11T09:33:55.427Z,118.25
2023-02-11T09:36:25.090Z,130.00
2023-02-11T09:38:52.779Z,112.75
2023-02-11T09:41:28.856Z,101.00
2023-02-11T09:43:58.694Z,89.50
2023-02-11T09:46:30.109Z,85.25
2023-02-11T09:48:57.218Z,77.00
2023-02-11T09:51:39.730Z,72.75
2023-02-11T09:54:19.542Z,70.50
2023-02-11T09:56:46.447Z,69.25
2023-02-11T09:59:16.240Z,74.50
2023-02-11T10:02:11.916Z,91.25
2023-02-11T10:04:57.263Z,98.25
2023-02-11T10:07:48.334Z,98.00
2023-02-11T10:10:56.626Z,108.25
2023-02-11T10:13:30.361Z,105.75
2023-02-11T10:16:08.937Z,117.00
2023-02-11T10:19:05.274Z,80.75
2023-02-11T10:21:37.910Z,68.50
2023-02-11T10:24:12.419Z,45.25
2023-02-11T10:26:40.788Z,88.25
2023-02-11T10:29:14.717Z,88.25
2023-02-11T10:31:45.300Z,83.50
2023-02-11T10:34:13.912Z,86.25
2023-02-11T10:36:43.380Z,87.50
2023-02-11T10:39:18.039Z,100.00
2023-02-11T10:41:58.244Z,92.50
2023-02-11T10:44:36.511Z,84.00
2023-02-11T10:47:10.281Z,76.25
2023-02-11T10:49:42.918Z,87.00
2023-02-11T10:52:24.419Z,74.75
2023-02-11T10:55:02.939Z,78.25
2023-02-11T10:57:37.455Z,81.50
2023-02-11T11:00:22.874Z,93.25
2023-02-11T11:02:56.652Z,74.50
2023-02-11T11:05:45.609Z,78.00
2023-02-11T11:08:13.354Z,73.25
2023-02-11T11:10:47.050Z,71.75
2023-02-11T11:13:34.758Z,70.25
2023-02-11T11:16:13.347Z,77.75
2023-02-11T11:18:42.133Z,76.25
2023-02-11T11:21:35.417Z,70.00
2023-02-11T11:24:20.948Z,75.75
2023-02-11T11:26:52.175Z,72.25
2023-02-11T11:29:31.222Z,68.75
2023-02-11T11:32:01.842Z,60.25
2023-02-11T11:34:32.432Z,69.50
2023-02-11T11:37:02.129Z,64.75
2023-02-11T11:39:34.984Z,56.25
2023-02-11T11:42:05.497Z,63.25
2023-02-11T11:44:34.694Z,69.25
2023-02-11T11:47:13.576Z,75.25
2023-02-11T11:49:40.390Z,64.00
2023-02-11T11:52:21.948Z,58.25
2023-02-11T11:54:58.358Z,55.00
2023-02-11T11:57:28.745Z,58.75
2023-02-11T11:59:55.904Z,65.25
2023-02-11T12:03:00.246Z,61.75
2023-02-11T12:05:45.286Z,57.00
2023-02-11T12:08:20.978Z,56.75
2023-02-11T12:11:10.952Z,61.25
2023-02-11T12:13:57.023Z,61.75
2023-02-11T12:16:42.787Z,49.25
2023-02-11T12:19:34.337Z,57.25
2023-02-11T12:22:12.784Z,51.50
2023-02-11T12:25:08.037Z,67.75
2023-02-11T12:27:34.745Z,70.25
2023-02-11T12:30:04.660Z,68.75
2023-02-11T12:32:37.036Z,93.50
2023-02-11T12:35:27.340Z,81.25
2023-02-11T12:37:54.136Z,65.75
2023-02-11T12:40:26.745Z,78.25
2023-02-11T12:43:17.186Z,80.50
2023-02-11T12:45:49.674Z,82.75
2023-02-11T12:48:22.659Z,83.00
2023-02-11T12:51:11.977Z,75.50
2023-02-11T12:54:16.114Z,72.75
2023-02-11T12:56:48.848Z,73.75
2023-02-11T12:59:26.271Z,64.25
2023-02-11T13:01:55.734Z,77.00
2023-02-11T13:04:30.944Z,73.25
2023-02-11T13:07:02.389Z,73.00
2023-02-11T13:09:37.218Z,73.00
2023-02-11T13:12:26.095Z,88.50
2023-02-11T13:14:56.551Z,74.50
2023-02-11T13:17:32.823Z,74.50
2023-02-11T13:20:05.893Z,88.00
2023-02-11T13:22:46.412Z,110.75
2023-02-11T13:25:50.224Z,90.00
2023-02-11T13:28:45.522Z,86.50
2023-02-11T13:31:14.817Z,78.50
2023-02-11T13:33:43.293Z,92.50
2023-02-11T13:36:10.001Z,86.75
2023-02-11T13:38:38.162Z,89.00
2023-02-11T13:41:20.786Z,79.75
2023-02-11T13:43:59.247Z,84.00
2023-02-11T13:46:29.134Z,87.00
2023-02-11T13:48:56.773Z,86.50
2023-02-11T13:51:39.095Z,76.75
2023-02-11T13:54:08.523Z,80.50
2023-02-11T13:56:40.830Z,83.00
2023-02-11T13:59:25.994Z,85.25
2023-02-11T14:02:35.917Z,79.75
2023-02-11T14:05:21.071Z,70.50
2023-02-11T14:08:36.325Z,65.75
2023-02-11T14:11:29.619Z,71.25
2023-02-11T14:14:14.908Z,63.25
2023-02-11T14:17:00.033Z,59.25
2023-02-11T14:19:35.879Z,71.00
2023-02-11T14:22:10.021Z,68.50
2023-02-11T14:24:36.703Z,64.75
2023-02-11T14:27:13.296Z,68.75
2023-02-11T14:30:09.405Z,60.50
2023-02-11T14:32:54.528Z,73.25
2023-02-11T14:35:39.623Z,63.25
2023-02-11T14:38:15.124Z,70.50
2023-02-11T14:41:03.272Z,71.25
2023-02-11T14:43:43.582Z,64.00
2023-02-11T14:46:10.556Z,66.25
2023-02-11T14:48:39.365Z,58.00
2023-02-11T14:51:11.354Z,57.50
2023-02-11T14:53:43.821Z,63.25
2023-02-11T14:56:28.049Z,51.75
2023-02-11T14:58:55.611Z,56.00
2023-02-11T15:01:35.470Z,62.00
2023-02-11T15:04:03.901Z,72.25
2023-02-11T15:06:38.029Z,69.75
2023-02-11T15:09:25.631Z,69.00
2023-02-11T15:11:53.305Z,69.00
2023-02-11T15:14:28.061Z,63.75
2023-02-11T15:16:58.571Z,57.50
2023-02-11T15:19:35.971Z,53.75
2023-02-11T15:22:07.155Z,63.25
2023-02-11T15:24:35.662Z,71.00
2023-02-11T15:27:03.831Z,70.00
2023-02-11T15:29:43.352Z,72.25
2023-02-11T15:32:10.240Z,76.00
2023-02-11T15:34:37.565Z,71.75
2023-02-11T15:37:04.751Z,75.50
2023-02-11T15:39:41.091Z,91.50
2023-02-11T15:42:27.492Z,119.50
2023-02-11T15:45:16.229Z,198.75
2023-02-11T15:47:49.715Z,269.25
2023-02-11T15:50:32.373Z,240.50
2023-02-11T15:53:20.985Z,378.50
2023-02-11T15:55:50.862Z,263.50
2023-02-11T15:58:18.277Z,254.75
2023-02-11T16:00:51.096Z,249.50
2023-02-11T16:03:28.756Z,203.75
2023-02-11T16:05:59.933Z,266.50
2023-02-11T16:08:29.983Z,171.50
2023-02-11T16:11:03.367Z,205.25
2023-02-11T16:13:34.528Z,189.00
2023-02-11T16:16:04.824Z,160.00
2023-02-11T16:18:40.467Z,203.25
2023-02-11T16:21:18.230Z,149.00
2023-02-11T16:23:54.465Z,238.75
2023-02-11T16:26:43.363Z,261.25
2023-02-11T16:29:37.506Z,275.25
2023-02-11T16:32:15.162Z,249.00
2023-02-11T16:34:42.064Z,215.00
2023-02-11T16:37:08.834Z,200.50
2023-02-11T16:39:35.952Z,219.50
2023-02-11T16:42:05.763Z,299.25
2023-02-11T16:44:34.905Z,278.00
2023-02-11T16:47:06.156Z,274.75
2023-02-11T16:49:37.123Z,288.75
2023-02-11T16:52:07.743Z,293.25
2023-02-11T16:54:34.572Z,269.25
2023-02-11T16:57:06.059Z,285.50
2023-02-11T16:59:34.879Z,238.25
2023-02-11T17:02:01.844Z,244.50
2023-02-11T17:04:31.531Z,298.00
2023-02-11T17:06:58.834Z,384.50
2023-02-11T17:09:30.602Z,353.25
2023-02-11T17:11:57.969Z,278.75
2023-02-11T17:14:24.777Z,309.00
2023-02-11T17:16:51.710Z,323.25
2023-02-11T17:19:23.588Z,323.50
2023-02-11T17:21:52.483Z,341.25
2023-02-11T17:24:20.660Z,377.00
2023-02-11T17:26:49.094Z,356.75
2023-02-11T17:29:25.621Z,355.00
2023-02-11T17:31:53.254Z,449.80
2023-02-11T17:34:21.636Z,390.00
2023-02-11T17:36:49.175Z,354.75
2023-02-11T17:39:16.535Z,373.50
2023-02-11T17:41:43.377Z,374.50
2023-02-11T17:44:12.410Z,289.25
2023-02-11T17:46:39.372Z,250.25
2023-02-11T17:49:06.297Z,254.00
2023-02-11T17:51:35.248Z,227.50
2023-02-11T17:54:04.990Z,224.50
2023-02-11T17:56:33.352Z,273.00
2023-02-11T17:59:02.470Z,262.50
2023-02-11T18:01:30.790Z,293.00
2023-02-11T18:03:57.687Z,243.75
2023-02-11T18:06:24.729Z,364.25
2023-02-11T18:08:51.828Z,399.75
2023-02-11T18:11:18.806Z,378.00
2023-02-11T18:13:45.708Z,381.50
2023-02-11T18:16:15.911Z,392.25
2023-02-11T18:18:43.692Z,323.00
2023-02-11T18:21:19.365Z,313.50
2023-02-11T18:23:46.995Z,281.50
2023-02-11T18:26:15.609Z,267.25
2023-02-11T18:28:45.632Z,234.50
2023-02-11T18:31:13.922Z,250.50
2023-02-11T18:33:42.702Z,282.50
2023-02-11T18:36:12.036Z,303.75
2023-02-11T18:38:41.874Z,330.00
2023-02-11T18:41:08.683Z,394.75
2023-02-11T18:43:36.371Z,410.25
2023-02-11T18:46:08.348Z,397.50
2023-02-11T18:48:35.276Z,368.50
2023-02-11T18:51:02.049Z,435.00
2023-02-11T18:53:28.838Z,395.25
2023-02-11T18:55:55.795Z,431.00
2023-02-11T18:58:22.890Z,309.75
2023-02-11T19:00:50.545Z,223.75
2023-02-11T19:03:17.618Z,191.00
2023-02-11T19:05:49.186Z,171.50
2023-02-11T19:08:17.192Z,280.75
2023-02-11T19:10:46.958Z,350.25
2023-02-11T19:13:14.158Z,358.50
2023-02-11T19:15:42.587Z,540.75
2023-02-11T19:18:10.110Z,475.75
2023-02-11T19:20:39.882Z,378.00
2023-02-11T19:23:06.735Z,386.00
2023-02-11T19:25:33.604Z,389.50
2023-02-11T19:28:00.527Z,359.25
2023-02-11T19:30:27.846Z,333.75
2023-02-11T19:32:57.166Z,282.00
2023-02-11T19:35:25.300Z,296.50
2023-02-11T19:37:52.124Z,319.75
2023-02-11T19:40:21.212Z,291.75
2023-02-11T19:42:48.246Z,370.50
2023-02-11T19:45:15.510Z,402.00
2023-02-11T19:47:42.251Z,411.25
2023-02-11T19:50:09.610Z,398.75
2023-02-11T19:52:40.785Z,378.00
2023-02-11T19:55:08.408Z,344.00
2023-02-11T19:57:37.054Z,418.50
2023-02-11T20:00:05.160Z,404.00
2023-02-11T20:02:39.565Z,359.00
2023-02-11T20:05:06.877Z,303.00
2023-02-11T20:07:33.634Z,280.00
2023-02-11T20:10:00.494Z,260.25
2023-02-11T20:12:27.374Z,228.75
2023-02-11T20:14:54.267Z,298.00
2023-02-11T20:17:21.047Z,245.75
2023-02-11T20:19:47.856Z,248.50
2023-02-11T20:22:14.700Z,251.75
2023-02-11T20:24:41.507Z,330.00
2023-02-11T20:27:10.539Z,360.25
2023-02-11T20:29:38.260Z,316.50
2023-02-11T20:32:06.453Z,276.25
2023-02-11T20:34:33.870Z,266.25
2023-02-11T20:37:00.658Z,286.25
2023-02-11T20:39:27.461Z,261.75
2023-02-11T20:41:54.880Z,318.75
2023-02-11T20:44:22.536Z,214.50
2023-02-11T20:46:51.368Z,200.25
2023-02-11T20:49:21.479Z,188.25
2023-02-11T20:51:49.155Z,206.00
2023-02-11T20:54:18.429Z,199.50
2023-02-11T20:56:48.078Z,303.50
2023-02-11T20:59:16.654Z,336.50
2023-02-11T21:01:48.115Z,357.75
2023-02-11T21:04:18.088Z,313.50
2023-02-11T21:06:48.169Z,293.50
2023-02-11T21:09:19.816Z,292.00
2023-02-11T21:11:47.668Z,300.00
2023-02-11T21:14:15.154Z,310.50
2023-02-11T21:16:42.302Z,315.50
2023-02-11T21:19:09.186Z,490.00
2023-02-11T21:21:38.533Z,305.75
2023-02-11T21:24:07.027Z,288.25
2023-02-11T21:26:35.491Z,303.00
2023-02-11T21:29:04.754Z,316.50
2023-02-11T21:31:34.327Z,302.75
2023-02-11T21:34:02.124Z,317.00
2023-02-11T21:36:29.788Z,320.75
2023-02-11T21:38:57.034Z,359.75
2023-02-11T21:41:24.941Z,348.00
2023-02-11T21:43:52.475Z,388.00
2023-02-11T21:46:20.468Z,391.50
2023-02-11T21:48:47.665Z,388.75
2023-02-11T21:51:17.276Z,442.50
2023-02-11T21:53:44.414Z,389.25
2023-02-11T21:56:13.980Z,351.25
2023-02-11T21:58:40.998Z,374.50
2023-02-11T22:01:15.842Z,280.75
2023-02-11T22:03:43.050Z,270.00
2023-02-11T22:06:12.546Z,238.25
2023-02-11T22:08:40.146Z,230.50
2023-02-11T22:11:09.532Z,213.25
2023-02-11T22:13:37.107Z,216.50
2023-02-11T22:16:10.595Z,220.50
2023-02-11T22:18:38.077Z,241.25
2023-02-11T22:21:10.870Z,282.75
2023-02-11T22:23:39.225Z,311.00
2023-02-11T22:26:23.926Z,270.25
2023-02-11T22:28:51.571Z,373.75
2023-02-11T22:31:25.185Z,335.00
2023-02-11T22:33:52.365Z,325.75
2023-02-11T22:36:22.466Z,321.25
2023-02-11T22:38:49.651Z,331.25
2023-02-11T22:41:17.341Z,355.50
2023-02-11T22:43:45.097Z,353.25
2023-02-11T22:46:14.433Z,382.25
2023-02-11T22:48:41.344Z,382.25
2023-02-11T22:51:14.214Z,371.75
2023-02-11T22:53:41.136Z,397.50
2023-02-11T22:56:15.018Z,423.75
2023-02-11T22:58:42.690Z,374.50
2023-02-11T23:01:10.411Z,308.50
2023-02-11T23:03:37.370Z,289.75
2023-02-11T23:06:05.065Z,283.75
2023-02-11T23:08:32.669Z,267.75
2023-02-11T23:11:11.673Z,289.50
2023-02-11T23:13:40.442Z,322.25
2023-02-11T23:16:10.213Z,318.25
2023-02-11T23:18:38.519Z,325.00
2023-02-11T23:21:11.305Z,307.75
2023-02-11T23:23:39.570Z,302.75
2023-02-11T23:26:11.113Z,318.50
2023-02-11T23:28:38.735Z,319.50
2023-02-11T23:31:25.453Z,325.25
2023-02-11T23:33:52.727Z,349.25
2023-02-11T23:36:21.455Z,252.50
2023-02-11T23:38:48.999Z,260.25
2023-02-11T23:41:16.422Z,219.75
2023-02-11T23:43:43.521Z,215.50
2023-02-11T23:46:10.968Z,240.75
2023-02-11T23:48:38.031Z,237.75
2023-02-11T23:51:05.025Z,249.00
2023-02-11T23:53:31.744Z,252.75
2023-02-11T23:55:58.611Z,250.25
2023-02-11T23:58:25.380Z,195.75
